createdAt,value
2022-12-03T00:00:49.893Z,52.60
2022-12-03T00:03:17.041Z,52.60
2022-12-03T00:05:48.800Z,52.50
2022-12-03T00:08:16.733Z,52.50
2022-12-03T00:10:43.681Z,52.60
2022-12-03T00:13:10.600Z,52.50
2022-12-03T00:15:38.001Z,52.50
2022-12-03T00:18:04.882Z,53.10
2022-12-03T00:20:34.535Z,53.00
2022-12-03T00:23:01.638Z,52.50
2022-12-03T00:25:29.383Z,52.50
2022-12-03T00:28:01.735Z,52.50
2022-12-03T00:30:28.900Z,52.50
2022-12-03T00:32:55.830Z,52.50
2022-12-03T00:35:22.799Z,52.50
2022-12-03T00:37:49.895Z,52.50
2022-12-03T00:40:17.246Z,53.00
2022-12-03T00:42:44.432Z,52.40
2022-12-03T00:45:11.662Z,52.40
2022-12-03T00:47:41.800Z,52.40
2022-12-03T00:50:10.318Z,52.40
2022-12-03T00:52:37.476Z,52.50
2022-12-03T00:55:04.995Z,52.50
2022-12-03T00:57:34.257Z,52.40
2022-12-03T01:00:01.434Z,52.40
2022-12-03T01:02:28.517Z,52.40
2022-12-03T01:04:55.943Z,52.40
2022-12-03T01:07:23.665Z,52.40
2022-12-03T01:09:54.343Z,52.40
2022-12-03T01:12:21.536Z,52.40
2022-12-03T01:14:48.731Z,52.40
2022-12-03T01:17:15.754Z,52.30
2022-12-03T01:19:48.207Z,52.40
2022-12-03T01:22:18.035Z,52.40
2022-12-03T01:24:44.996Z,52.40
2022-12-03T01:27:12.270Z,52.30
2022-12-03T01:29:39.145Z,52.30
2022-12-03T01:32:19.713Z,52.40
2022-12-03T01:34:54.840Z,52.30
2022-12-03T01:37:26.430Z,52.30
2022-12-03T01:39:56.947Z,52.20
2022-12-03T01:42:40.103Z,52.30
2022-12-03T01:45:11.516Z,52.30
2022-12-03T01:47:41.799Z,52.30
2022-12-03T01:50:14.951Z,52.20
2022-12-03T01:52:44.964Z,52.30
2022-12-03T01:55:17.052Z,52.30
2022-12-03T01:57:47.216Z,52.30
2022-12-03T02:00:23.264Z,52.20
2022-12-03T02:02:53.917Z,52.20
2022-12-03T02:05:23.790Z,52.20
2022-12-03T02:07:51.072Z,52.20
2022-12-03T02:10:23.147Z,52.20
2022-12-03T02:12:58.212Z,52.30
2022-12-03T02:15:25.768Z,52.20
2022-12-03T02:17:54.066Z,52.20
2022-12-03T02:20:21.538Z,52.20
2022-12-03T02:23:18.081Z,52.20
2022-12-03T02:25:45.246Z,52.20
2022-12-03T02:28:14.736Z,52.20
2022-12-03T02:30:42.114Z,52.20
2022-12-03T02:33:09.307Z,52.70
2022-12-03T02:35:40.673Z,52.10
2022-12-03T02:38:07.737Z,52.10
2022-12-03T02:40:35.075Z,52.10
2022-12-03T02:43:03.145Z,52.10
2022-12-03T02:45:32.459Z,52.10
2022-12-03T02:48:33.323Z,52.10
2022-12-03T02:51:04.379Z,52.10
2022-12-03T02:53:42.354Z,52.10
2022-12-03T02:56:11.613Z,52.10
2022-12-03T02:58:42.083Z,52.10
2022-12-03T03:01:11.056Z,52.00
2022-12-03T03:03:38.902Z,52.10
2022-12-03T03:06:07.149Z,52.10
2022-12-03T03:08:35.182Z,52.00
2022-12-03T03:11:05.009Z,52.10
2022-12-03T03:13:36.664Z,52.00
2022-12-03T03:16:04.980Z,52.10
2022-12-03T03:18:33.452Z,52.10
2022-12-03T03:21:01.047Z,52.00
2022-12-03T03:23:28.195Z,52.10
2022-12-03T03:26:06.337Z,52.10
2022-12-03T03:28:37.527Z,52.00
2022-12-03T03:31:06.847Z,52.10
2022-12-03T03:33:34.961Z,52.10
2022-12-03T03:36:02.596Z,52.00
2022-12-03T03:38:30.431Z,52.00
2022-12-03T03:40:59.900Z,52.00
2022-12-03T03:43:31.188Z,52.00
2022-12-03T03:45:58.257Z,52.00
2022-12-03T03:48:27.333Z,52.00
2022-12-03T03:50:54.335Z,52.00
2022-12-03T03:53:23.174Z,52.00
2022-12-03T03:55:51.097Z,52.00
2022-12-03T03:58:18.466Z,52.00
2022-12-03T04:00:46.966Z,52.00
2022-12-03T04:03:14.394Z,52.00
2022-12-03T04:05:41.648Z,52.00
2022-12-03T04:08:08.669Z,51.90
2022-12-03T04:10:54.292Z,52.00
2022-12-03T04:13:21.462Z,51.90
2022-12-03T04:15:48.690Z,51.90
2022-12-03T04:18:34.046Z,52.00
2022-12-03T04:21:19.832Z,52.00
2022-12-03T04:23:46.990Z,52.00
2022-12-03T04:26:32.824Z,52.00
2022-12-03T04:29:00.175Z,52.00
2022-12-03T04:31:45.827Z,52.00
2022-12-03T04:34:31.019Z,51.90
2022-12-03T04:36:58.422Z,52.00
2022-12-03T04:39:27.722Z,52.00
2022-12-03T04:41:57.091Z,52.00
2022-12-03T04:44:38.324Z,52.00
2022-12-03T04:47:11.665Z,52.00
2022-12-03T04:49:47.395Z,52.00
2022-12-03T04:52:16.412Z,51.90
2022-12-03T04:54:43.694Z,52.00
2022-12-03T04:57:11.159Z,52.00
2022-12-03T04:59:38.883Z,52.00
2022-12-03T05:02:06.939Z,51.90
2022-12-03T05:04:37.357Z,52.00
2022-12-03T05:07:07.629Z,51.90
2022-12-03T05:09:37.102Z,51.90
2022-12-03T05:12:04.520Z,51.90
2022-12-03T05:14:31.891Z,51.90
2022-12-03T05:17:01.477Z,51.90
2022-12-03T05:19:54.181Z,51.90
2022-12-03T05:22:26.101Z,52.00
2022-12-03T05:24:53.287Z,52.00
2022-12-03T05:27:24.098Z,52.00
2022-12-03T05:29:52.273Z,51.90
2022-12-03T05:32:20.299Z,52.00
2022-12-03T05:34:47.326Z,52.00
2022-12-03T05:37:14.479Z,51.90
2022-12-03T05:39:41.425Z,51.90
2022-12-03T05:42:28.637Z,52.00
2022-12-03T05:44:55.713Z,52.00
2022-12-03T05:47:22.671Z,52.00
2022-12-03T05:49:49.476Z,52.00
2022-12-03T05:52:16.630Z,52.00
2022-12-03T05:54:43.545Z,52.00
2022-12-03T05:57:12.457Z,52.00
2022-12-03T05:59:39.740Z,52.10
2022-12-03T06:02:09.294Z,52.00
2022-12-03T06:04:36.560Z,52.00
2022-12-03T06:07:03.977Z,52.10
2022-12-03T06:09:31.122Z,50.60
2022-12-03T06:11:57.934Z,51.30
2022-12-03T06:14:24.801Z,45.40
2022-12-03T06:16:52.001Z,43.40
2022-12-03T06:19:19.009Z,43.50
2022-12-03T06:21:45.833Z,46.20
2022-12-03T06:24:13.008Z,43.30
2022-12-03T06:26:39.844Z,45.20
2022-12-03T06:29:06.653Z,47.70
2022-12-03T06:31:33.521Z,44.60
2022-12-03T06:34:00.376Z,44.00
2022-12-03T06:36:27.979Z,45.00
2022-12-03T06:38:55.471Z,48.00
2022-12-03T06:41:25.319Z,50.10
2022-12-03T06:43:52.483Z,49.10
2022-12-03T06:46:22.039Z,48.90
2022-12-03T06:48:48.880Z,48.70
2022-12-03T06:51:16.027Z,48.70
2022-12-03T06:53:43.180Z,48.60
2022-12-03T06:56:10.393Z,48.60
2022-12-03T06:58:37.536Z,48.60
2022-12-03T07:01:04.765Z,48.60
2022-12-03T07:03:31.562Z,48.60
2022-12-03T07:05:58.716Z,48.60
2022-12-03T07:08:25.639Z,48.60
2022-12-03T07:10:52.850Z,48.80
2022-12-03T07:13:22.283Z,48.70
2022-12-03T07:15:49.281Z,48.90
2022-12-03T07:18:16.505Z,49.00
2022-12-03T07:20:43.375Z,49.00
2022-12-03T07:23:10.255Z,49.20
2022-12-03T07:25:37.467Z,49.30
2022-12-03T07:28:04.657Z,49.30
2022-12-03T07:30:34.807Z,49.40
2022-12-03T07:33:04.333Z,49.40
2022-12-03T07:35:33.338Z,49.50
2022-12-03T07:38:01.142Z,49.50
2022-12-03T07:40:28.654Z,49.60
2022-12-03T07:42:55.591Z,49.60
2022-12-03T07:45:25.766Z,49.60
2022-12-03T07:47:52.563Z,49.60
2022-12-03T07:50:22.916Z,49.70
2022-12-03T07:52:49.950Z,49.70
2022-12-03T07:55:20.002Z,49.80
2022-12-03T07:57:47.091Z,49.70
2022-12-03T08:00:14.992Z,49.70
2022-12-03T08:02:41.865Z,49.80
2022-12-03T08:05:09.329Z,49.80
2022-12-03T08:07:36.558Z,49.80
2022-12-03T08:10:05.972Z,49.90
2022-12-03T08:12:44.733Z,49.80
2022-12-03T08:15:35.193Z,49.90
2022-12-03T08:18:20.010Z,50.40
2022-12-03T08:20:54.043Z,49.90
2022-12-03T08:23:25.362Z,49.90
2022-12-03T08:25:53.379Z,49.90
2022-12-03T08:28:26.097Z,49.90
2022-12-03T08:31:05.963Z,50.00
2022-12-03T08:33:35.528Z,50.00
2022-12-03T08:36:12.942Z,49.10
2022-12-03T08:38:39.923Z,49.70
2022-12-03T08:41:15.789Z,49.90
2022-12-03T08:43:44.223Z,50.10
2022-12-03T08:46:18.200Z,50.10
2022-12-03T08:48:49.363Z,50.20
2022-12-03T08:51:26.427Z,49.90
2022-12-03T08:54:01.807Z,45.60
2022-12-03T08:56:31.326Z,44.00
2022-12-03T08:59:26.499Z,44.00
2022-12-03T09:02:13.697Z,43.80
2022-12-03T09:04:46.317Z,43.70
2022-12-03T09:07:13.861Z,43.80
2022-12-03T09:09:40.926Z,43.80
2022-12-03T09:12:07.939Z,43.50
2022-12-03T09:14:35.273Z,44.30
2022-12-03T09:17:02.215Z,44.80
2022-12-03T09:19:31.322Z,45.10
2022-12-03T09:21:58.563Z,45.50
2022-12-03T09:24:25.722Z,45.70
2022-12-03T09:26:52.928Z,45.90
2022-12-03T09:29:22.515Z,46.10
2022-12-03T09:31:49.603Z,46.20
2022-12-03T09:34:18.889Z,46.30
2022-12-03T09:36:46.515Z,46.60
2022-12-03T09:39:14.261Z,46.60
2022-12-03T09:41:41.447Z,46.70
2022-12-03T09:44:13.927Z,46.80
2022-12-03T09:46:46.211Z,46.80
2022-12-03T09:49:17.058Z,46.90
2022-12-03T09:51:47.007Z,47.00
2022-12-03T09:54:24.229Z,47.00
2022-12-03T09:56:52.788Z,47.10
2022-12-03T09:59:26.325Z,47.20
2022-12-03T10:01:56.583Z,47.20
2022-12-03T10:04:24.405Z,47.20
2022-12-03T10:06:52.052Z,47.50
2022-12-03T10:09:27.376Z,47.50
2022-12-03T10:11:57.686Z,47.50
2022-12-03T10:14:30.052Z,47.50
2022-12-03T10:16:57.141Z,47.50
2022-12-03T10:19:32.330Z,47.50
2022-12-03T10:21:59.749Z,47.60
2022-12-03T10:24:34.304Z,47.60
2022-12-03T10:27:23.018Z,47.70
2022-12-03T10:30:01.069Z,47.70
2022-12-03T10:32:42.731Z,47.80
2022-12-03T10:35:36.263Z,47.90
2022-12-03T10:38:07.587Z,47.90
2022-12-03T10:40:39.341Z,47.90
2022-12-03T10:43:17.940Z,48.00
2022-12-03T10:45:47.169Z,48.00
2022-12-03T10:48:26.330Z,48.10
2022-12-03T10:50:57.612Z,48.10
2022-12-03T10:53:30.713Z,48.10
2022-12-03T10:56:02.039Z,48.20
2022-12-03T10:58:37.473Z,48.20
2022-12-03T11:01:18.707Z,48.30
2022-12-03T11:03:46.038Z,48.20
2022-12-03T11:06:15.818Z,48.30
2022-12-03T11:08:45.186Z,48.30
2022-12-03T11:11:41.042Z,48.40
2022-12-03T11:14:11.315Z,48.40
2022-12-03T11:16:41.227Z,48.40
2022-12-03T11:19:14.064Z,48.40
2022-12-03T11:22:10.083Z,48.50
2022-12-03T11:24:40.710Z,48.50
2022-12-03T11:27:18.370Z,48.50
2022-12-03T11:29:49.918Z,48.50
2022-12-03T11:32:39.026Z,48.50
2022-12-03T11:35:14.977Z,48.60
2022-12-03T11:37:42.151Z,48.60
2022-12-03T11:40:18.498Z,48.60
2022-12-03T11:42:48.296Z,48.70
2022-12-03T11:45:28.644Z,48.70
2022-12-03T11:47:58.784Z,48.70
2022-12-03T11:50:40.322Z,48.70
2022-12-03T11:53:26.197Z,48.70
2022-12-03T11:56:06.776Z,48.70
2022-12-03T11:58:36.287Z,48.70
2022-12-03T12:01:08.230Z,48.80
2022-12-03T12:03:50.381Z,48.80
2022-12-03T12:06:18.978Z,48.80
2022-12-03T12:08:51.653Z,48.80
2022-12-03T12:11:27.385Z,48.90
2022-12-03T12:14:00.979Z,48.90
2022-12-03T12:16:53.751Z,48.90
2022-12-03T12:19:34.448Z,48.90
2022-12-03T12:22:16.325Z,48.90
2022-12-03T12:24:51.849Z,48.90
2022-12-03T12:27:22.139Z,48.90
2022-12-03T12:30:00.895Z,49.00
2022-12-03T12:32:34.260Z,49.00
2022-12-03T12:35:23.252Z,49.00
2022-12-03T12:38:00.481Z,49.10
2022-12-03T12:40:30.470Z,49.00
2022-12-03T12:42:58.978Z,49.10
2022-12-03T12:45:28.164Z,49.10
2022-12-03T12:48:03.613Z,49.10
2022-12-03T12:50:33.208Z,49.10
2022-12-03T12:53:35.863Z,49.10
2022-12-03T12:56:26.096Z,49.10
2022-12-03T12:58:54.499Z,49.10
2022-12-03T13:01:30.443Z,49.10
2022-12-03T13:04:00.605Z,49.20
2022-12-03T13:06:30.507Z,49.20
2022-12-03T13:08:59.107Z,49.20
2022-12-03T13:11:34.951Z,49.20
2022-12-03T13:14:25.816Z,49.20
2022-12-03T13:16:55.250Z,49.30
2022-12-03T13:19:27.614Z,49.20
2022-12-03T13:22:00.973Z,49.30
2022-12-03T13:24:37.049Z,49.30
2022-12-03T13:27:22.856Z,49.90
2022-12-03T13:29:56.572Z,49.30
2022-12-03T13:32:31.892Z,49.30
2022-12-03T13:35:18.906Z,49.40
2022-12-03T13:37:45.700Z,49.40
2022-12-03T13:40:31.165Z,49.40
2022-12-03T13:42:59.471Z,49.40
2022-12-03T13:45:32.153Z,49.40
2022-12-03T13:48:10.921Z,49.50
2022-12-03T13:50:40.279Z,49.40
2022-12-03T13:53:27.148Z,49.50
2022-12-03T13:56:22.546Z,49.50
2022-12-03T13:58:49.729Z,49.50
2022-12-03T14:01:17.056Z,49.50
2022-12-03T14:03:43.939Z,49.60
2022-12-03T14:06:11.180Z,49.60
2022-12-03T14:08:38.389Z,49.60
2022-12-03T14:11:05.345Z,49.60
2022-12-03T14:13:35.447Z,49.60
2022-12-03T14:16:02.705Z,49.60
2022-12-03T14:18:29.752Z,49.70
2022-12-03T14:20:56.623Z,49.70
2022-12-03T14:23:26.032Z,49.60
2022-12-03T14:25:58.059Z,49.70
2022-12-03T14:28:24.928Z,49.60
2022-12-03T14:30:51.761Z,49.80
2022-12-03T14:33:19.005Z,49.80
2022-12-03T14:35:53.863Z,49.70
2022-12-03T14:38:20.693Z,49.70
2022-12-03T14:40:47.560Z,49.80
2022-12-03T14:43:14.504Z,49.70
2022-12-03T14:45:41.615Z,49.80
2022-12-03T14:48:08.856Z,49.80
2022-12-03T14:50:35.834Z,49.80
2022-12-03T14:53:02.780Z,49.80
2022-12-03T14:55:29.623Z,49.90
2022-12-03T14:57:59.057Z,49.90
2022-12-03T15:00:25.926Z,49.90
2022-12-03T15:02:52.938Z,49.90
2022-12-03T15:05:27.887Z,49.90
2022-12-03T15:07:55.723Z,49.90
2022-12-03T15:10:25.261Z,50.20
2022-12-03T15:12:54.910Z,48.20
2022-12-03T15:15:22.086Z,49.10
2022-12-03T15:17:49.232Z,49.70
2022-12-03T15:20:18.521Z,49.70
2022-12-03T15:22:45.391Z,50.10
2022-12-03T15:25:12.926Z,50.30
2022-12-03T15:27:41.573Z,50.30
2022-12-03T15:30:11.570Z,50.30
2022-12-03T15:32:38.718Z,50.40
2022-12-03T15:35:08.692Z,50.40
2022-12-03T15:37:36.007Z,50.40
2022-12-03T15:40:03.051Z,50.60
2022-12-03T15:42:30.553Z,50.70
2022-12-03T15:44:57.774Z,50.70
2022-12-03T15:47:25.092Z,50.50
2022-12-03T15:49:55.299Z,50.60
2022-12-03T15:52:22.546Z,50.60
2022-12-03T15:54:55.636Z,50.70
2022-12-03T15:57:22.796Z,50.60
2022-12-03T15:59:49.964Z,50.70
2022-12-03T16:02:18.923Z,51.30
2022-12-03T16:04:45.990Z,50.70
2022-12-03T16:07:13.238Z,50.90
2022-12-03T16:09:40.216Z,47.30
2022-12-03T16:12:07.173Z,44.40
2022-12-03T16:14:36.218Z,48.50
2022-12-03T16:17:03.307Z,49.90
2022-12-03T16:19:30.527Z,50.20
2022-12-03T16:21:57.686Z,50.60
2022-12-03T16:24:24.916Z,50.60
2022-12-03T16:26:54.450Z,50.50
2022-12-03T16:29:21.621Z,50.50
2022-12-03T16:31:51.649Z,50.50
2022-12-03T16:34:18.599Z,50.40
2022-12-03T16:36:45.825Z,50.40
2022-12-03T16:39:13.363Z,51.00
2022-12-03T16:41:40.624Z,50.40
2022-12-03T16:44:20.033Z,50.30
2022-12-03T16:46:49.718Z,50.40
2022-12-03T16:49:16.966Z,50.30
2022-12-03T16:51:43.923Z,50.30
2022-12-03T16:54:11.785Z,50.30
2022-12-03T16:56:39.093Z,50.30
2022-12-03T16:59:06.040Z,50.30
2022-12-03T17:01:33.462Z,50.30
2022-12-03T17:04:03.336Z,50.30
2022-12-03T17:06:30.924Z,50.30
2022-12-03T17:09:00.741Z,50.30
2022-12-03T17:11:27.973Z,50.30
2022-12-03T17:13:55.135Z,50.30
2022-12-03T17:16:22.429Z,50.30
2022-12-03T17:18:52.472Z,50.30
2022-12-03T17:21:22.324Z,50.30
2022-12-03T17:23:51.147Z,50.30
2022-12-03T17:26:19.194Z,50.30
2022-12-03T17:28:46.802Z,50.30
2022-12-03T17:31:16.677Z,50.30
2022-12-03T17:33:43.661Z,50.30
2022-12-03T17:36:10.777Z,50.30
2022-12-03T17:38:39.480Z,50.30
2022-12-03T17:41:07.592Z,50.30
2022-12-03T17:43:37.079Z,50.30
2022-12-03T17:46:06.857Z,50.30
2022-12-03T17:48:34.378Z,50.30
2022-12-03T17:51:03.722Z,50.30
2022-12-03T17:53:30.704Z,50.30
2022-12-03T17:55:57.922Z,50.30
2022-12-03T17:58:28.105Z,50.90
2022-12-03T18:01:01.811Z,50.30
2022-12-03T18:03:29.530Z,50.30
2022-12-03T18:05:56.612Z,50.30
2022-12-03T18:08:23.565Z,50.30
2022-12-03T18:10:50.834Z,50.40
2022-12-03T18:13:18.013Z,50.40
2022-12-03T18:15:44.932Z,50.30
2022-12-03T18:18:12.127Z,50.40
2022-12-03T18:20:39.389Z,50.40
2022-12-03T18:23:06.390Z,50.40
2022-12-03T18:25:33.337Z,50.40
2022-12-03T18:28:00.316Z,50.40
2022-12-03T18:30:27.170Z,50.30
2022-12-03T18:32:54.403Z,50.40
2022-12-03T18:35:21.593Z,50.40
2022-12-03T18:37:52.571Z,50.40
2022-12-03T18:40:24.012Z,50.40
2022-12-03T18:42:52.150Z,50.40
2022-12-03T18:45:21.875Z,50.40
2022-12-03T18:47:49.476Z,50.40
2022-12-03T18:50:16.556Z,50.40
2022-12-03T18:52:43.580Z,50.40
2022-12-03T18:55:17.999Z,50.40
2022-12-03T18:57:45.373Z,50.40
2022-12-03T19:00:13.845Z,50.40
2022-12-03T19:05:28.066Z,50.50
2022-12-03T19:07:57.602Z,50.50
2022-12-03T19:10:28.050Z,50.50
2022-12-03T19:12:54.903Z,50.40
2022-12-03T19:15:22.162Z,50.50
2022-12-03T19:17:50.369Z,50.40
2022-12-03T19:20:17.616Z,50.50
2022-12-03T19:22:44.462Z,50.40
2022-12-03T19:25:11.336Z,50.40
2022-12-03T19:27:38.592Z,50.40
2022-12-03T19:30:09.466Z,50.40
2022-12-03T19:32:36.941Z,50.40
2022-12-03T19:35:07.927Z,50.40
2022-12-03T19:37:35.732Z,50.50
2022-12-03T19:40:03.281Z,50.40
2022-12-03T19:42:31.517Z,50.40
2022-12-03T19:44:59.291Z,50.40
2022-12-03T19:47:26.336Z,50.40
2022-12-03T19:49:53.948Z,50.40
2022-12-03T19:52:21.614Z,50.40
2022-12-03T19:54:50.842Z,50.40
2022-12-03T19:57:23.501Z,50.40
2022-12-03T19:59:53.363Z,50.40
2022-12-03T20:02:21.553Z,50.40
2022-12-03T20:04:48.902Z,50.40
2022-12-03T20:07:16.268Z,50.50
2022-12-03T20:09:43.563Z,50.30
2022-12-03T20:12:10.919Z,50.40
2022-12-03T20:14:38.537Z,50.40
2022-12-03T20:17:07.623Z,50.40
2022-12-03T20:19:34.594Z,50.30
2022-12-03T20:22:03.055Z,50.40
2022-12-03T20:24:30.218Z,50.40
2022-12-03T20:26:57.463Z,50.30
2022-12-03T20:29:24.710Z,50.40
2022-12-03T20:31:51.682Z,50.40
2022-12-03T20:34:21.262Z,50.30
2022-12-03T20:36:48.043Z,50.30
2022-12-03T20:39:14.998Z,50.30
2022-12-03T20:41:42.241Z,50.20
2022-12-03T20:44:11.791Z,50.40
2022-12-03T20:46:38.714Z,50.30
2022-12-03T20:49:06.076Z,50.30
2022-12-03T20:51:33.175Z,50.30
2022-12-03T20:54:03.673Z,50.30
2022-12-03T20:56:36.317Z,50.30
2022-12-03T20:59:10.316Z,50.20
2022-12-03T21:01:38.798Z,50.30
2022-12-03T21:04:06.939Z,50.20
2022-12-03T21:06:36.328Z,50.20
2022-12-03T21:09:06.238Z,50.20
2022-12-03T21:11:37.114Z,50.30
2022-12-03T21:14:05.143Z,50.20
2022-12-03T21:17:07.101Z,50.20
2022-12-03T21:19:26.317Z,50.20
2022-12-03T21:21:53.372Z,50.20
2022-12-03T21:24:22.918Z,50.10
2022-12-03T21:26:50.319Z,50.20
2022-12-03T21:29:20.069Z,50.10
2022-12-03T21:31:49.622Z,50.10
2022-12-03T21:34:16.854Z,50.20
2022-12-03T21:36:44.244Z,50.20
2022-12-03T21:39:11.167Z,50.20
2022-12-03T21:41:38.897Z,50.10
2022-12-03T21:44:06.539Z,50.10
2022-12-03T21:47:09.145Z,50.10
2022-12-03T21:49:22.654Z,50.10
2022-12-03T21:51:52.707Z,50.10
2022-12-03T21:54:20.518Z,50.10
2022-12-03T21:56:47.703Z,50.10
2022-12-03T21:59:15.136Z,50.10
2022-12-03T22:01:46.919Z,50.10
2022-12-03T22:04:17.037Z,50.00
2022-12-03T22:06:44.224Z,50.10
2022-12-03T22:09:14.136Z,50.10
2022-12-03T22:11:41.261Z,50.00
2022-12-03T22:14:09.923Z,49.90
2022-12-03T22:16:37.163Z,50.00
2022-12-03T22:19:04.414Z,50.00
2022-12-03T22:21:31.558Z,50.00
2022-12-03T22:23:58.804Z,50.00
2022-12-03T22:26:29.257Z,50.00
2022-12-03T22:28:59.027Z,50.00
2022-12-03T22:31:25.983Z,50.00
2022-12-03T22:33:52.937Z,50.00
2022-12-03T22:36:22.409Z,50.00
2022-12-03T22:38:50.418Z,49.90
2022-12-03T22:41:23.062Z,50.00
2022-12-03T22:43:50.185Z,50.00
2022-12-03T22:46:17.636Z,49.90
2022-12-03T22:48:46.614Z,49.90
2022-12-03T22:51:21.728Z,49.90
2022-12-03T22:53:53.897Z,49.90
2022-12-03T22:56:22.698Z,49.90
2022-12-03T22:58:52.614Z,49.90
2022-12-03T23:01:25.072Z,49.90
2022-12-03T23:03:55.288Z,49.90
2022-12-03T23:06:23.352Z,49.90
2022-12-03T23:08:50.897Z,49.90
2022-12-03T23:11:21.236Z,49.90
2022-12-03T23:13:49.010Z,49.80
2022-12-03T23:16:19.663Z,49.90
2022-12-03T23:18:48.731Z,49.90
2022-12-03T23:21:17.865Z,49.90
2022-12-03T23:23:44.949Z,49.80
2022-12-03T23:26:13.945Z,49.90
2022-12-03T23:28:45.074Z,49.80
2022-12-03T23:31:25.702Z,49.80
2022-12-03T23:33:55.908Z,49.80
2022-12-03T23:36:27.833Z,49.90
2022-12-03T23:38:55.006Z,49.90
2022-12-03T23:41:23.709Z,49.80
2022-12-03T23:43:53.378Z,49.80
2022-12-03T23:46:23.273Z,49.90
2022-12-03T23:48:51.356Z,49.90
2022-12-03T23:51:21.385Z,49.80
2022-12-03T23:53:48.606Z,49.80
2022-12-03T23:56:21.893Z,49.80
2022-12-03T23:58:49.386Z,49.80
